createdAt,value
2022-07-26T00:01:07.998Z,98287.09
2022-07-26T00:06:21.117Z,98273.84
2022-07-26T00:08:50.527Z,98259.47
2022-07-26T00:11:18.634Z,98257.81
2022-07-26T00:13:47.030Z,98247.03
2022-07-26T00:16:14.931Z,98239.44
2022-07-26T00:18:42.897Z,98248.16
2022-07-26T00:21:11.792Z,98237.00
2022-07-26T00:23:39.663Z,98237.78
2022-07-26T00:26:09.028Z,98236.94
2022-07-26T00:28:36.799Z,98227.34
2022-07-26T00:31:04.700Z,98233.75
2022-07-26T00:33:32.450Z,98246.94
2022-07-26T00:36:00.471Z,98248.06
2022-07-26T00:38:28.196Z,98240.03
2022-07-26T00:40:56.022Z,98246.50
2022-07-26T00:43:25.116Z,98252.09
2022-07-26T00:45:52.903Z,98254.56
2022-07-26T00:48:20.685Z,98257.06
2022-07-26T00:50:48.505Z,98248.13
2022-07-26T00:53:16.266Z,98254.38
2022-07-26T00:55:44.051Z,98256.81
2022-07-26T00:58:13.475Z,98249.66
2022-07-26T01:00:42.662Z,98256.16
2022-07-26T01:03:11.132Z,98252.72
2022-07-26T01:05:38.953Z,98239.03
2022-07-26T01:08:06.655Z,98235.50
2022-07-26T01:10:34.675Z,98229.03
2022-07-26T01:13:02.379Z,98236.59
2022-07-26T01:15:30.141Z,98225.78
2022-07-26T01:17:59.245Z,98234.63
2022-07-26T01:20:27.040Z,98230.19
2022-07-26T01:22:56.135Z,98229.47
2022-07-26T01:25:30.616Z,98210.25
2022-07-26T01:27:58.539Z,98212.66
2022-07-26T01:30:26.232Z,98217.84
2022-07-26T01:32:53.973Z,98205.78
2022-07-26T01:35:22.258Z,98208.28
2022-07-26T01:37:50.169Z,98205.19
2022-07-26T01:40:19.260Z,98209.28
2022-07-26T01:42:47.092Z,98200.06
2022-07-26T01:45:14.913Z,98201.69
2022-07-26T01:47:42.602Z,98194.19
2022-07-26T01:50:10.976Z,98189.44
2022-07-26T01:52:39.333Z,98197.44
2022-07-26T01:55:07.268Z,98187.06
2022-07-26T01:57:36.434Z,98184.25
2022-07-26T02:00:06.031Z,98180.66
2022-07-26T02:02:33.914Z,98164.22
2022-07-26T02:05:02.003Z,98164.22
2022-07-26T02:07:31.603Z,98152.63
2022-07-26T02:10:01.076Z,98147.41
2022-07-26T02:12:29.688Z,98152.91
2022-07-26T02:14:59.017Z,98150.53
2022-07-26T02:17:26.882Z,98139.69
2022-07-26T02:19:54.543Z,98146.06
2022-07-26T02:22:22.201Z,98134.84
2022-07-26T02:24:50.390Z,98139.19
2022-07-26T02:27:18.740Z,98137.56
2022-07-26T02:29:46.619Z,98141.88
2022-07-26T02:32:15.759Z,98131.75
2022-07-26T02:34:43.446Z,98134.50
2022-07-26T02:37:11.494Z,98135.28
2022-07-26T02:39:39.205Z,98137.22
2022-07-26T02:42:06.989Z,98135.94
2022-07-26T02:44:35.710Z,98133.63
2022-07-26T02:47:03.664Z,98139.63
2022-07-26T02:49:32.768Z,98140.47
2022-07-26T02:52:00.487Z,98145.38
2022-07-26T02:54:28.206Z,98141.09
2022-07-26T02:56:55.918Z,98140.84
2022-07-26T02:59:23.584Z,98140.88
2022-07-26T03:01:51.406Z,98138.09
2022-07-26T03:04:19.158Z,98126.50
2022-07-26T03:06:48.250Z,98130.81
2022-07-26T03:09:15.957Z,98120.41
2022-07-26T03:11:43.709Z,98117.13
2022-07-26T03:14:11.789Z,98117.84
2022-07-26T03:16:39.863Z,98121.75
2022-07-26T03:19:07.647Z,98117.84
2022-07-26T03:21:35.355Z,98116.41
2022-07-26T03:24:04.647Z,98111.25
2022-07-26T03:26:32.530Z,98119.31
2022-07-26T03:29:00.243Z,98120.50
2022-07-26T03:31:28.089Z,98116.59
2022-07-26T03:33:59.805Z,98116.97
2022-07-26T03:36:30.721Z,98114.19
2022-07-26T03:38:58.530Z,98115.44
2022-07-26T03:41:27.621Z,98106.53
2022-07-26T03:43:55.345Z,98101.31
2022-07-26T03:46:23.079Z,98106.91
2022-07-26T03:48:50.879Z,98105.44
2022-07-26T03:51:18.608Z,98103.59
2022-07-26T03:53:46.393Z,98094.88
2022-07-26T03:56:31.804Z,98087.72
2022-07-26T03:59:02.914Z,98097.41
2022-07-26T04:01:30.997Z,98093.13
2022-07-26T04:03:58.742Z,98097.00
2022-07-26T04:06:27.111Z,98087.72
2022-07-26T04:08:54.849Z,98082.53
2022-07-26T04:11:22.738Z,98076.56
2022-07-26T04:13:56.080Z,98085.88
2022-07-26T04:16:25.243Z,98080.78
2022-07-26T04:18:53.191Z,98092.50
2022-07-26T04:21:21.259Z,98076.91
2022-07-26T04:23:51.295Z,98072.94
2022-07-26T04:26:20.068Z,98074.16
2022-07-26T04:28:48.020Z,98071.72
2022-07-26T04:31:15.969Z,98073.66
2022-07-26T04:33:45.222Z,98072.81
2022-07-26T04:36:12.922Z,98078.50
2022-07-26T04:38:40.625Z,98081.38
2022-07-26T04:41:08.666Z,98077.88
2022-07-26T04:43:36.366Z,98086.34
2022-07-26T04:46:04.157Z,98078.44
2022-07-26T04:48:31.978Z,98074.91
2022-07-26T04:51:01.724Z,98069.69
2022-07-26T04:53:29.476Z,98068.13
2022-07-26T04:55:57.190Z,98067.75
2022-07-26T04:58:24.912Z,98060.56
2022-07-26T05:01:10.370Z,98057.38
2022-07-26T05:03:38.871Z,98056.63
2022-07-26T05:06:08.540Z,98059.47
2022-07-26T05:08:36.269Z,98067.94
2022-07-26T05:11:04.215Z,98052.31
2022-07-26T05:13:31.984Z,98066.00
2022-07-26T05:16:00.374Z,98058.75
2022-07-26T05:18:31.637Z,98058.38
2022-07-26T05:21:04.642Z,98061.16
2022-07-26T05:23:33.757Z,98057.19
2022-07-26T05:26:01.567Z,98048.75
2022-07-26T05:28:29.312Z,98061.19
2022-07-26T05:30:57.182Z,98058.78
2022-07-26T05:33:24.956Z,98043.13
2022-07-26T05:35:52.694Z,98048.31
2022-07-26T05:38:20.752Z,98040.28
2022-07-26T05:40:50.882Z,98041.88
2022-07-26T05:43:19.164Z,98039.03
2022-07-26T05:45:46.959Z,98036.19
2022-07-26T05:48:14.752Z,98040.50
2022-07-26T05:50:42.457Z,98044.09
2022-07-26T05:53:10.304Z,98035.59
2022-07-26T05:55:37.993Z,98041.94
2022-07-26T05:58:07.107Z,98049.19
2022-07-26T06:00:35.017Z,98048.75
2022-07-26T06:03:21.988Z,98045.44
2022-07-26T06:05:50.676Z,98044.97
2022-07-26T06:08:19.481Z,98054.09
2022-07-26T06:10:47.837Z,98048.38
2022-07-26T06:13:17.346Z,98044.59
2022-07-26T06:15:45.129Z,98043.69
2022-07-26T06:18:13.283Z,98050.94
2022-07-26T06:20:41.505Z,98050.47
2022-07-26T06:23:09.273Z,98050.84
2022-07-26T06:25:37.153Z,98050.06
2022-07-26T06:28:04.956Z,98044.84
2022-07-26T06:30:33.972Z,98038.41
2022-07-26T06:33:02.204Z,98041.13
2022-07-26T06:35:31.937Z,98040.78
2022-07-26T06:38:00.285Z,98036.75
2022-07-26T06:40:28.365Z,98039.50
2022-07-26T06:42:58.042Z,98037.41
2022-07-26T06:45:29.605Z,98032.22
2022-07-26T06:47:58.665Z,98035.31
2022-07-26T06:50:26.338Z,98033.34
2022-07-26T06:52:54.168Z,98020.13
2022-07-26T06:55:22.158Z,98022.78
2022-07-26T06:57:50.663Z,98023.88
2022-07-26T07:00:20.529Z,98024.69
2022-07-26T07:02:48.786Z,98033.56
2022-07-26T07:05:17.898Z,98026.69
2022-07-26T07:07:45.693Z,98033.81
2022-07-26T07:10:14.102Z,98040.94
2022-07-26T07:12:43.608Z,98054.69
2022-07-26T07:15:14.061Z,98048.13
2022-07-26T07:17:41.821Z,98053.09
2022-07-26T07:20:10.341Z,98047.09
2022-07-26T07:22:39.547Z,98055.47
2022-07-26T07:25:07.740Z,98055.72
2022-07-26T07:27:36.254Z,98053.72
2022-07-26T07:30:06.998Z,98056.50
2022-07-26T07:32:35.397Z,98065.16
2022-07-26T07:35:03.172Z,98064.25
2022-07-26T07:37:53.571Z,98068.50
2022-07-26T07:40:20.141Z,98067.16
2022-07-26T07:42:48.190Z,98057.63
2022-07-26T07:45:15.971Z,98045.22
2022-07-26T07:47:43.815Z,98065.47
2022-07-26T07:50:14.152Z,98067.59
2022-07-26T07:52:41.957Z,98064.28
2022-07-26T07:57:59.757Z,98050.09
2022-07-26T08:00:27.880Z,98057.19
2022-07-26T08:02:55.945Z,98055.38
2022-07-26T08:05:24.168Z,98050.25
2022-07-26T08:07:52.745Z,98058.28
2022-07-26T08:10:20.618Z,98045.94
2022-07-26T08:12:51.306Z,98049.31
2022-07-26T08:15:21.922Z,98059.56
2022-07-26T08:17:53.927Z,98056.03
2022-07-26T08:20:22.953Z,98063.63
2022-07-26T08:22:53.369Z,98064.41
2022-07-26T08:25:21.267Z,98063.81
2022-07-26T08:28:03.247Z,98062.84
2022-07-26T08:30:34.714Z,98061.41
2022-07-26T08:33:02.604Z,98066.72
2022-07-26T08:35:30.532Z,98062.72
2022-07-26T08:37:58.429Z,98064.38
2022-07-26T08:40:26.496Z,98067.28
2022-07-26T08:42:55.965Z,98075.75
2022-07-26T08:45:24.249Z,98077.25
2022-07-26T08:48:16.285Z,98080.97
2022-07-26T08:50:43.236Z,98084.09
2022-07-26T08:53:12.879Z,98083.63
2022-07-26T08:58:28.484Z,98096.31
2022-07-26T09:01:08.324Z,98093.34
2022-07-26T09:03:38.653Z,98093.56
2022-07-26T09:06:14.632Z,98103.72
2022-07-26T09:08:42.454Z,98097.75
2022-07-26T09:11:30.729Z,98103.97
2022-07-26T09:14:00.245Z,98106.84
2022-07-26T09:16:28.828Z,98104.56
2022-07-26T09:19:16.068Z,98092.91
2022-07-26T09:21:43.781Z,98110.13
2022-07-26T09:24:11.926Z,98111.88
2022-07-26T09:26:39.778Z,98126.97
2022-07-26T09:29:09.641Z,98117.69
2022-07-26T09:31:38.465Z,98119.47
2022-07-26T09:34:08.648Z,98141.69
2022-07-26T09:36:51.626Z,98131.25
2022-07-26T09:39:33.351Z,98133.69
2022-07-26T09:42:26.659Z,98131.47
2022-07-26T09:44:56.397Z,98138.31
2022-07-26T09:47:24.697Z,98136.31
2022-07-26T09:50:15.315Z,98152.03
2022-07-26T09:52:58.554Z,98151.13
2022-07-26T09:55:26.453Z,98145.94
2022-07-26T09:57:54.388Z,98156.00
2022-07-26T10:00:22.638Z,98153.91
2022-07-26T10:02:50.506Z,98150.75
2022-07-26T10:05:21.373Z,98159.84
2022-07-26T10:07:49.778Z,98153.13
2022-07-26T10:10:21.763Z,98160.41
2022-07-26T10:12:52.050Z,98163.53
2022-07-26T10:15:40.326Z,98168.78
2022-07-26T10:18:09.317Z,98171.16
2022-07-26T10:20:50.733Z,98170.97
2022-07-26T10:23:38.013Z,98176.38
2022-07-26T10:26:07.590Z,98181.06
2022-07-26T10:28:38.564Z,98184.00
2022-07-26T10:31:32.373Z,98184.03
2022-07-26T10:34:01.587Z,98186.47
2022-07-26T10:36:40.754Z,98186.56
2022-07-26T10:39:13.774Z,98197.09
2022-07-26T10:41:44.214Z,98189.38
2022-07-26T10:44:16.560Z,98194.44
2022-07-26T10:47:19.761Z,98191.34
2022-07-26T10:49:58.613Z,98191.91
2022-07-26T10:52:29.597Z,98194.59
2022-07-26T10:55:14.980Z,98200.91
2022-07-26T10:57:44.188Z,98190.66
2022-07-26T11:00:20.889Z,98201.06
2022-07-26T11:02:50.554Z,98202.00
2022-07-26T11:05:21.727Z,98206.19
2022-07-26T11:08:09.215Z,98219.28
2022-07-26T11:10:40.399Z,98207.09
2022-07-26T11:13:16.468Z,98208.09
2022-07-26T11:15:49.089Z,98210.28
2022-07-26T11:18:19.401Z,98214.69
2022-07-26T11:20:49.244Z,98205.13
2022-07-26T11:23:34.990Z,98207.63
2022-07-26T11:26:10.698Z,98214.19
2022-07-26T11:28:57.499Z,98209.06
2022-07-26T11:31:51.440Z,98208.56
2022-07-26T11:34:29.262Z,98205.13
2022-07-26T11:36:58.173Z,98207.63
2022-07-26T11:39:29.667Z,98204.03
2022-07-26T11:41:58.741Z,98211.59
2022-07-26T11:44:27.804Z,98212.47
2022-07-26T11:46:57.743Z,98221.91
2022-07-26T11:49:51.923Z,98229.44
2022-07-26T11:52:14.991Z,98199.38
2022-07-26T11:54:54.326Z,98232.88
2022-07-26T11:57:22.189Z,98249.44
2022-07-26T11:59:51.226Z,98244.69
2022-07-26T12:02:19.196Z,98241.81
2022-07-26T12:04:47.111Z,98251.94
2022-07-26T12:07:16.154Z,98257.88
2022-07-26T12:09:48.381Z,98256.72
2022-07-26T12:12:25.276Z,98255.31
2022-07-26T12:15:04.498Z,98258.81
2022-07-26T12:17:34.994Z,98268.94
2022-07-26T12:20:12.168Z,98267.66
2022-07-26T12:22:40.509Z,98271.63
2022-07-26T12:25:09.312Z,98252.09
2022-07-26T12:27:46.728Z,98244.50
2022-07-26T12:30:16.347Z,98263.66
2022-07-26T12:32:45.506Z,98258.22
2022-07-26T12:35:15.748Z,98280.41
2022-07-26T12:37:51.368Z,98273.69
2022-07-26T12:40:22.190Z,98281.41
2022-07-26T12:43:01.129Z,98286.25
2022-07-26T12:45:31.948Z,98296.69
2022-07-26T12:48:01.119Z,98296.34
2022-07-26T12:50:33.127Z,98293.56
2022-07-26T12:53:02.600Z,98294.72
2022-07-26T12:55:30.480Z,98288.34
2022-07-26T12:58:00.052Z,98275.06
2022-07-26T13:00:29.767Z,98278.28
2022-07-26T13:02:58.354Z,98272.28
2022-07-26T13:05:26.264Z,98281.13
2022-07-26T13:07:54.258Z,98300.38
2022-07-26T13:10:33.204Z,98303.19
2022-07-26T13:13:03.719Z,98311.59
2022-07-26T13:15:37.159Z,98308.41
2022-07-26T13:18:07.255Z,98316.41
2022-07-26T13:20:35.280Z,98324.44
2022-07-26T13:23:03.068Z,98338.50
2022-07-26T13:25:38.246Z,98351.31
2022-07-26T13:28:09.237Z,98364.16
2022-07-26T13:30:38.437Z,98361.72
2022-07-26T13:33:06.365Z,98368.91
2022-07-26T13:35:34.118Z,98369.31
2022-07-26T13:38:01.898Z,98368.97
2022-07-26T13:40:31.724Z,98375.81
2022-07-26T13:42:59.892Z,98381.00
2022-07-26T13:45:30.019Z,98378.63
2022-07-26T13:47:59.541Z,98390.63
2022-07-26T13:50:27.772Z,98369.28
2022-07-26T13:52:56.303Z,98383.31
2022-07-26T13:55:25.689Z,98386.53
2022-07-26T13:57:57.262Z,98393.28
2022-07-26T14:00:27.862Z,98388.44
2022-07-26T14:02:58.713Z,98398.81
2022-07-26T14:05:28.104Z,98390.38
2022-07-26T14:07:57.251Z,98393.25
2022-07-26T14:10:25.443Z,98393.25
2022-07-26T14:12:53.803Z,98400.06
2022-07-26T14:15:23.289Z,98401.63
2022-07-26T14:17:51.799Z,98406.06
2022-07-26T14:20:21.959Z,98411.69
2022-07-26T14:22:53.205Z,98421.28
2022-07-26T14:25:22.520Z,98414.47
2022-07-26T14:27:50.959Z,98420.44
2022-07-26T14:30:18.730Z,98419.59
2022-07-26T14:32:47.247Z,98418.41
2022-07-26T14:35:16.486Z,98421.13
2022-07-26T14:37:46.139Z,98416.66
2022-07-26T14:40:17.157Z,98403.84
2022-07-26T14:42:45.523Z,98408.25
2022-07-26T14:45:13.841Z,98404.56
2022-07-26T14:47:41.711Z,98404.56
2022-07-26T14:50:11.068Z,98410.47
2022-07-26T14:52:40.235Z,98409.56
2022-07-26T14:55:15.349Z,98405.88
2022-07-26T14:57:44.057Z,98408.69
2022-07-26T15:00:13.780Z,98408.28
2022-07-26T15:02:42.547Z,98408.69
2022-07-26T15:05:10.945Z,98411.03
2022-07-26T15:07:40.110Z,98407.34
2022-07-26T15:10:12.189Z,98413.31
2022-07-26T15:12:40.058Z,98415.28
2022-07-26T15:15:09.513Z,98416.00
2022-07-26T15:17:37.726Z,98416.38
2022-07-26T15:20:06.892Z,98423.56
2022-07-26T15:22:35.243Z,98423.47
2022-07-26T15:25:04.214Z,98422.75
2022-07-26T15:27:33.381Z,98429.13
2022-07-26T15:30:05.295Z,98437.81
2022-07-26T15:32:36.048Z,98427.41
2022-07-26T15:35:04.073Z,98435.34
2022-07-26T15:37:31.885Z,98426.50
2022-07-26T15:39:59.721Z,98430.50
2022-07-26T15:42:27.845Z,98429.31
2022-07-26T15:44:57.157Z,98430.69
2022-07-26T15:47:52.950Z,98424.28
2022-07-26T15:50:14.341Z,98428.31
2022-07-26T15:52:45.291Z,98431.56
2022-07-26T15:55:16.408Z,98434.84
2022-07-26T15:57:44.309Z,98434.75
2022-07-26T16:00:19.519Z,98433.22
2022-07-26T16:02:52.879Z,98434.38
2022-07-26T16:05:22.068Z,98429.16
2022-07-26T16:07:49.830Z,98427.88
2022-07-26T16:10:18.590Z,98425.16
2022-07-26T16:12:46.435Z,98423.16
2022-07-26T16:15:16.184Z,98430.94
2022-07-26T16:17:43.946Z,98431.34
2022-07-26T16:20:14.195Z,98433.53
2022-07-26T16:22:42.116Z,98430.44
2022-07-26T16:25:13.031Z,98427.22
2022-07-26T16:27:44.046Z,98429.25
2022-07-26T16:30:18.286Z,98432.75
2022-07-26T16:32:46.104Z,98419.63
2022-07-26T16:35:14.413Z,98428.53
2022-07-26T16:37:42.482Z,98424.59
2022-07-26T16:40:11.485Z,98434.97
2022-07-26T16:42:43.151Z,98432.50
2022-07-26T16:45:11.969Z,98433.66
2022-07-26T16:47:41.185Z,98434.91
2022-07-26T16:50:09.575Z,98426.84
2022-07-26T16:52:37.340Z,98425.63
2022-07-26T16:55:11.777Z,98432.09
2022-07-26T16:57:39.595Z,98427.72
2022-07-26T17:00:09.987Z,98420.50
2022-07-26T17:02:38.332Z,98417.31
2022-07-26T17:05:08.977Z,98418.91
2022-07-26T17:07:37.545Z,98420.03
2022-07-26T17:10:15.372Z,98418.13
2022-07-26T17:12:43.426Z,98418.13
2022-07-26T17:15:12.262Z,98423.78
2022-07-26T17:17:41.558Z,98419.69
2022-07-26T17:20:13.612Z,98428.63
2022-07-26T17:22:41.330Z,98428.25
2022-07-26T17:25:09.978Z,98428.25
2022-07-26T17:27:37.872Z,98430.25
2022-07-26T17:30:07.241Z,98424.97
2022-07-26T17:32:36.024Z,98429.31
2022-07-26T17:35:03.745Z,98428.81
2022-07-26T17:37:34.907Z,98441.81
2022-07-26T17:40:03.459Z,98439.25
2022-07-26T17:42:31.519Z,98441.81
2022-07-26T17:44:59.240Z,98456.28
2022-07-26T17:47:30.467Z,98461.00
2022-07-26T17:50:14.205Z,98461.69
2022-07-26T17:52:48.757Z,98457.63
2022-07-26T17:55:19.546Z,98457.59
2022-07-26T17:57:47.921Z,98461.59
2022-07-26T18:00:16.984Z,98470.81
2022-07-26T18:02:44.858Z,98469.53
2022-07-26T18:05:12.718Z,98464.72
2022-07-26T18:07:41.171Z,98459.19
2022-07-26T18:10:11.624Z,98457.69
2022-07-26T18:12:39.462Z,98455.28
2022-07-26T18:15:08.586Z,98450.28
2022-07-26T18:17:36.316Z,98459.19
2022-07-26T18:20:04.994Z,98464.00
2022-07-26T18:22:32.740Z,98465.63
2022-07-26T18:25:00.514Z,98457.53
2022-07-26T18:27:30.290Z,98449.44
2022-07-26T18:29:58.155Z,98453.31
2022-07-26T18:32:26.129Z,98463.44
2022-07-26T18:34:54.135Z,98447.22
2022-07-26T18:37:22.152Z,98468.63
2022-07-26T18:39:52.821Z,98472.59
2022-07-26T18:42:23.250Z,98463.63
2022-07-26T18:44:52.509Z,98465.53
2022-07-26T18:47:20.246Z,98476.25
2022-07-26T18:49:47.967Z,98467.47
2022-07-26T18:52:17.906Z,98477.16
2022-07-26T18:54:58.630Z,98475.63
2022-07-26T18:57:26.342Z,98474.13
2022-07-26T18:59:55.443Z,98472.50
2022-07-26T19:02:23.243Z,98471.75
2022-07-26T19:04:51.054Z,98472.94
2022-07-26T19:07:18.744Z,98467.56
2022-07-26T19:09:46.480Z,98457.41
2022-07-26T19:12:14.165Z,98469.75
2022-07-26T19:14:41.861Z,98469.00
2022-07-26T19:17:11.682Z,98464.53
2022-07-26T19:19:39.742Z,98470.41
2022-07-26T19:22:07.466Z,98460.06
2022-07-26T19:24:35.347Z,98467.81
2022-07-26T19:27:03.072Z,98471.13
2022-07-26T19:29:30.858Z,98464.72
2022-07-26T19:31:58.958Z,98475.78
2022-07-26T19:34:28.277Z,98470.13
2022-07-26T19:36:55.979Z,98474.38
2022-07-26T19:39:23.881Z,98459.88
2022-07-26T19:41:51.679Z,98467.53
2022-07-26T19:44:19.630Z,98469.47
2022-07-26T19:46:47.812Z,98463.88
2022-07-26T19:49:16.995Z,98460.66
2022-07-26T19:51:46.370Z,98473.56
2022-07-26T19:54:14.108Z,98472.94
2022-07-26T19:56:41.894Z,98470.47
2022-07-26T19:59:09.994Z,98474.06
2022-07-26T20:01:38.006Z,98463.72
2022-07-26T20:04:06.358Z,98475.63
2022-07-26T20:06:34.310Z,98462.91
2022-07-26T20:09:03.468Z,98459.59
2022-07-26T20:11:31.224Z,98465.56
2022-07-26T20:13:58.971Z,98469.66
2022-07-26T20:16:26.721Z,98469.97
2022-07-26T20:18:56.109Z,98474.75
2022-07-26T20:21:23.828Z,98468.97
2022-07-26T20:23:51.538Z,98477.66
2022-07-26T20:26:21.847Z,98473.25
2022-07-26T20:28:50.633Z,98469.88
2022-07-26T20:31:18.566Z,98474.75
2022-07-26T20:33:46.467Z,98473.47
2022-07-26T20:36:14.427Z,98481.50
2022-07-26T20:38:42.157Z,98473.63
2022-07-26T20:41:09.899Z,98467.84
2022-07-26T20:43:39.534Z,98472.53
2022-07-26T20:46:08.360Z,98482.09
2022-07-26T20:48:36.201Z,98478.25
2022-07-26T20:51:13.231Z,98482.00
2022-07-26T20:53:41.586Z,98481.28
2022-07-26T20:56:10.372Z,98483.31
2022-07-26T20:58:39.553Z,98488.03
2022-07-26T21:01:07.471Z,98494.44
2022-07-26T21:03:35.292Z,98494.50
2022-07-26T21:06:02.988Z,98493.75
2022-07-26T21:08:30.734Z,98490.03
2022-07-26T21:10:58.575Z,98483.50
2022-07-26T21:13:26.317Z,98490.16
2022-07-26T21:15:55.467Z,98494.50
2022-07-26T21:18:23.583Z,98485.00
2022-07-26T21:20:53.199Z,98489.91
2022-07-26T21:23:20.909Z,98489.16
2022-07-26T21:25:48.686Z,98487.94
2022-07-26T21:28:25.702Z,98484.56
2022-07-26T21:30:54.879Z,98488.22
2022-07-26T21:33:22.593Z,98490.88
2022-07-26T21:35:50.433Z,98491.81
2022-07-26T21:38:18.171Z,98489.91
2022-07-26T21:40:46.119Z,98491.41
2022-07-26T21:43:14.056Z,98486.09
2022-07-26T21:45:41.896Z,98488.66
2022-07-26T21:48:10.974Z,98490.59
2022-07-26T21:50:38.805Z,98498.09
2022-07-26T21:53:06.529Z,98486.09
2022-07-26T21:55:34.245Z,98499.34
2022-07-26T21:58:02.090Z,98505.03
2022-07-26T22:00:29.792Z,98499.13
2022-07-26T22:02:57.460Z,98492.38
2022-07-26T22:05:42.540Z,98499.94
2022-07-26T22:08:11.613Z,98499.13
2022-07-26T22:10:42.919Z,98504.06
2022-07-26T22:13:12.779Z,98500.19
2022-07-26T22:15:40.596Z,98502.97
2022-07-26T22:18:09.863Z,98496.97
2022-07-26T22:20:39.859Z,98507.66
2022-07-26T22:23:09.211Z,98506.53
2022-07-26T22:25:38.613Z,98505.72
2022-07-26T22:28:07.551Z,98505.78
2022-07-26T22:30:35.919Z,98506.53
2022-07-26T22:33:05.376Z,98509.66
2022-07-26T22:35:36.795Z,98503.41
2022-07-26T22:38:08.448Z,98500.63
2022-07-26T22:40:36.450Z,98505.41
2022-07-26T22:43:04.363Z,98495.09
2022-07-26T22:45:33.688Z,98505.47
2022-07-26T22:48:03.390Z,98509.06
2022-07-26T22:50:31.424Z,98480.50
2022-07-26T22:53:00.890Z,98492.75
2022-07-26T22:55:30.604Z,98483.84
2022-07-26T22:57:58.420Z,98487.09
2022-07-26T23:00:26.589Z,98495.09
2022-07-26T23:02:54.500Z,98502.31
2022-07-26T23:05:22.350Z,98507.81
2022-07-26T23:08:03.364Z,98497.47
2022-07-26T23:10:33.061Z,98491.50
2022-07-26T23:13:00.873Z,98499.81
2022-07-26T23:15:28.599Z,98494.16
2022-07-26T23:17:56.299Z,98508.13
2022-07-26T23:20:24.094Z,98499.75
2022-07-26T23:22:51.798Z,98506.44
2022-07-26T23:25:20.964Z,98506.44
2022-07-26T23:27:50.192Z,98504.88
2022-07-26T23:30:17.903Z,98512.03
2022-07-26T23:32:45.590Z,98496.38
2022-07-26T23:35:13.905Z,98503.59
2022-07-26T23:37:41.612Z,98509.97
2022-07-26T23:40:11.524Z,98501.22
2022-07-26T23:42:39.227Z,98498.00
2022-07-26T23:45:09.664Z,98497.09
2022-07-26T23:47:37.390Z,98499.19
2022-07-26T23:50:05.521Z,98503.06
2022-07-26T23:52:33.206Z,98507.09
2022-07-26T23:55:01.367Z,98507.56
2022-07-26T23:57:29.105Z,98508.00
2022-07-26T23:59:56.802Z,98502.31
